地図

経路データ

SID SEASON NUMBER BASIN SUBBASIN NAME ISO_TIME NATURE LAT LON WMO_WIND WMO_PRES WMO_AGENCY TRACK_TYPE DIST2LAND LANDFALL IFLAG USA_AGENCY USA_ATCF_ID USA_LAT USA_LON USA_RECORD USA_STATUS USA_WIND USA_PRES USA_SSHS USA_R34_NE USA_R34_SE USA_R34_SW USA_R34_NW USA_R50_NE USA_R50_SE USA_R50_SW USA_R50_NW USA_R64_NE USA_R64_SE USA_R64_SW USA_R64_NW USA_POCI USA_ROCI USA_RMW USA_EYE TOKYO_LAT TOKYO_LON TOKYO_GRADE TOKYO_WIND TOKYO_PRES TOKYO_R50_DIR TOKYO_R50_LONG TOKYO_R50_SHORT TOKYO_R30_DIR TOKYO_R30_LONG TOKYO_R30_SHORT TOKYO_LAND CMA_LAT CMA_LON CMA_CAT CMA_WIND CMA_PRES HKO_LAT HKO_LON HKO_CAT HKO_WIND HKO_PRES NEWDELHI_LAT NEWDELHI_LON NEWDELHI_GRADE NEWDELHI_WIND NEWDELHI_PRES NEWDELHI_CI NEWDELHI_DP NEWDELHI_POCI REUNION_LAT REUNION_LON REUNION_TYPE REUNION_WIND REUNION_PRES REUNION_TNUM REUNION_CI REUNION_RMW REUNION_R34_NE REUNION_R34_SE REUNION_R34_SW REUNION_R34_NW REUNION_R50_NE REUNION_R50_SE REUNION_R50_SW REUNION_R50_NW REUNION_R64_NE REUNION_R64_SE REUNION_R64_SW REUNION_R64_NW BOM_LAT BOM_LON BOM_TYPE BOM_WIND BOM_PRES BOM_TNUM BOM_CI BOM_RMW BOM_R34_NE BOM_R34_SE BOM_R34_SW BOM_R34_NW BOM_R50_NE BOM_R50_SE BOM_R50_SW BOM_R50_NW BOM_R64_NE BOM_R64_SE BOM_R64_SW BOM_R64_NW BOM_ROCI BOM_POCI BOM_EYE BOM_POS_METHOD BOM_PRES_METHOD NADI_LAT NADI_LON NADI_CAT NADI_WIND NADI_PRES WELLINGTON_LAT WELLINGTON_LON WELLINGTON_WIND WELLINGTON_PRES DS824_LAT DS824_LON DS824_STAGE DS824_WIND DS824_PRES TD9636_LAT TD9636_LON TD9636_STAGE TD9636_WIND TD9636_PRES TD9635_LAT TD9635_LON TD9635_WIND TD9635_PRES TD9635_ROCI NEUMANN_LAT NEUMANN_LON NEUMANN_CLASS NEUMANN_WIND NEUMANN_PRES MLC_LAT MLC_LON MLC_CLASS MLC_WIND MLC_PRES USA_GUST BOM_GUST BOM_GUST_PER REUNION_GUST REUNION_GUST_PER USA_SEAHGT USA_SEARAD_NE USA_SEARAD_SE USA_SEARAD_SW USA_SEARAD_NW STORM_SPEED STORM_DIR
1859273N17289 1859 22 NA CS NOT_NAMED 1859-09-29 12:00:00 TS 16.5000 -71.0000 main 130 102 _____________O -1 16.5000 -71.0000 TS 35 6 317
1859273N17289 1859 22 NA CS NOT_NAMED 1859-09-29 15:00:00 TS 16.7101 -71.2024 main 102 78 _____________P -1 16.7101 -71.2024 TS 37 6 316
1859273N17289 1859 22 NA CS NOT_NAMED 1859-09-29 18:00:00 TS 16.9000 -71.4000 main 78 67 _____________O -1 16.9000 -71.4000 TS 40 5 313
1859273N17289 1859 22 NA CS NOT_NAMED 1859-09-29 21:00:00 TS 17.0575 -71.5926 main 59 54 _____________P -1 17.0575 -71.5926 TS 45 5 308
1859273N17289 1859 22 NA CS NOT_NAMED 1859-09-30 00:00:00 TS 17.2000 -71.8000 main 61 61 _____________O -1 17.2000 -71.8000 TS 50 5 304
1859273N17289 1859 22 NA CS NOT_NAMED 1859-09-30 03:00:00 TS 17.3500 -72.0500 main 69 69 _____________P -1 17.3500 -72.0500 TS 55 6 302
1859273N17289 1859 22 NA CS NOT_NAMED 1859-09-30 06:00:00 TS 17.5000 -72.3000 main 78 64 _____________O -1 17.5000 -72.3000 TS 60 5 305
1859273N17289 1859 22 NA CS NOT_NAMED 1859-09-30 09:00:00 TS 17.6575 -72.5150 main 54 35 _____________P -1 17.6575 -72.5150 TS 60 5 308
1859273N17289 1859 22 NA CS NOT_NAMED 1859-09-30 12:00:00 TS 17.8000 -72.7000 main 35 22 _____________O -1 17.8000 -72.7000 TS 60 4 307
1859273N17289 1859 22 NA CS NOT_NAMED 1859-09-30 15:00:00 TS 17.9075 -72.8650 main 24 15 _____________P -1 17.9075 -72.8650 TS 67 3 305
1859273N17289 1859 22 NA CS NOT_NAMED 1859-09-30 18:00:00 TS 18.0000 -73.0000 main 22 11 _____________O -1 18.0000 -73.0000 HU 75 3 311
1859273N17289 1859 22 NA CS NOT_NAMED 1859-09-30 21:00:00 TS 18.1000 -73.1000 main 11 0 _____________P -1 18.1000 -73.1000 HU 80 3 316
1859273N17289 1859 22 NA CS NOT_NAMED 1859-10-01 00:00:00 TS 18.2000 -73.2000 main 0 0 _____________O -1 18.2000 -73.2000 HU 85 3 311
1859273N17289 1859 22 NA NA NOT_NAMED 1859-10-01 03:00:00 TS 18.3075 -73.3500 main 0 0 _____________P -1 18.3075 -73.3500 HU 87 3 305
1859273N17289 1859 22 NA NA NOT_NAMED 1859-10-01 06:00:00 TS 18.4000 -73.5000 main 0 0 _____________O -1 18.4000 -73.5000 HU 90 3 298
1859273N17289 1859 22 NA NA NOT_NAMED 1859-10-01 09:00:00 TS 18.4425 -73.6150 main 0 0 _____________P -1 18.4425 -73.6150 HU 92 2 298
1859273N17289 1859 22 NA CS NOT_NAMED 1859-10-01 12:00:00 TS 18.5000 -73.7000 main 0 0 _____________O -1 18.5000 -73.7000 HU 95 2 325
1859273N17289 1859 22 NA CS NOT_NAMED 1859-10-01 15:00:00 TS 18.6425 -73.7575 main 11 11 _____________P -1 18.6425 -73.7575 HU 95 3 343
1859273N17289 1859 22 NA CS NOT_NAMED 1859-10-01 18:00:00 TS 18.8000 -73.8000 main 30 30 _____________O -1 18.8000 -73.8000 HU 95 3 342
1859273N17289 1859 22 NA CS NOT_NAMED 1859-10-01 21:00:00 TS 18.9000 -73.8500 main 35 0 _____________P -1 18.9000 -73.8500 HU 95 6 242
1859273N17289 1859 22 NA NA NOT_NAMED 1859-10-02 00:00:00 TS 18.5000 -74.4000 80 hurdat_atl main 0 0 O____________O hurdat_atl AL061859 17.5000 -75.4000 HU 80 1 19.0000 -73.9000 HU 95 8 240
1859273N17289 1859 22 NA CS NOT_NAMED 1859-10-02 03:00:00 TS 18.4913 -74.5926 main 15 15 P____________P AL061859 17.8326 -75.2277 HU 80 1 19.1500 -73.9575 HU 95 3 299
1859273N17289 1859 22 NA CS NOT_NAMED 1859-10-02 06:00:00 TS 18.6400 -74.6600 80 hurdat_atl main 30 30 O____________O hurdat_atl AL061859 18.2000 -75.1000 HU 80 1 19.3000 -74.0000 HU 95 4 345
1859273N17289 1859 22 NA CS NOT_NAMED 1859-10-02 09:00:00 TS 18.8825 -74.6999 main 46 46 P____________P AL061859 18.6275 -75.0423 HU 80 1 19.3925 -74.0150 HU 95 6 359
1859273N17289 1859 22 NA CS NOT_NAMED 1859-10-02 12:00:00 TS 19.2333 -74.6667 80 hurdat_atl main 74 49 O____________O hurdat_atl AL061859 19.1000 -75.0000 HU 80 1 19.5000 -74.0000 HU 95 7 8
1859273N17289 1859 22 NA CS NOT_NAMED 1859-10-02 15:00:00 TS 19.6183 -74.6007 main 49 11 P____________P AL061859 19.5850 -74.9223 HU 80 1 19.6850 -73.9575 HU 95 8 11
1859273N17289 1859 22 NA CS NOT_NAMED 1859-10-02 18:00:00 TS 20.0333 -74.5000 80 hurdat_atl main 11 0 O____________O hurdat_atl AL061859 20.1000 -74.8000 HU 80 1 19.9000 -73.9000 HU 95 9 15
1859273N17289 1859 22 NA NA NOT_NAMED 1859-10-02 21:00:00 TS 20.4667 -74.3551 main 15 15 P____________P AL061859 20.6500 -74.6076 HU 80 1 20.1000 -73.8500 HU 95 9 18
1859273N17289 1859 22 NA NA NOT_NAMED 1859-10-03 00:00:00 TS 20.9000 -74.2000 80 hurdat_atl main 53 41 O____________O hurdat_atl AL061859 21.2000 -74.4000 HU 80 1 20.3000 -73.8000 HU 95 9 17
1859273N17289 1859 22 NA NA NOT_NAMED 1859-10-03 03:00:00 TS 21.3075 -74.0757 main 47 45 P____________P AL061859 21.7075 -74.2423 HU 80 1 20.5075 -73.7425 HU 95 8 15
1859273N17289 1859 22 NA NA NOT_NAMED 1859-10-03 06:00:00 TS 21.7000 -73.9667 80 hurdat_atl main 73 73 O____________O hurdat_atl AL061859 22.2000 -74.1000 HU 80 1 20.7000 -73.7000 HU 95 8 13
1859273N17289 1859 22 NA NA NOT_NAMED 1859-10-03 09:00:00 TS 22.0608 -73.8864 main 113 113 P____________P AL061859 22.6775 -73.9572 HU 85 2 20.8274 -73.7447 HU 95 9 11
1859273N17289 1859 22 NA NA NOT_NAMED 1859-10-03 12:00:00 TS 22.6000 -73.7727 90 hurdat_atl main 168 168 O____________O hurdat_atl AL061859 23.2000 -73.8000 HU 90 2 21.0000 -73.7000 HU 95 13 13
1859273N17289 1859 22 NA NA NOT_NAMED 1859-10-03 15:00:00 TS 23.3140 -73.5724 main 238 238 P____________P AL061859 23.8125 -73.6148 HU 90 2 21.3079 -73.4233 HU 95 16 14
1859273N17289 1859 22 NA NA NOT_NAMED 1859-10-03 18:00:00 TS 24.1889 -73.3556 90 hurdat_atl main 335 335 O____________O hurdat_atl AL061859 24.5000 -73.4000 HU 90 2 21.7000 -73.0000 HU 95 20 11
1859273N17289 1859 22 NA NA NOT_NAMED 1859-10-03 21:00:00 TS 25.2350 -73.1574 main 447 447 P_____________ AL061859 25.2350 -73.1574 HU 95 2 HU 19 13
1859273N17289 1859 22 NA NA NOT_NAMED 1859-10-04 00:00:00 TS 26.0000 -72.9000 100 hurdat_atl main 510 510 O_____________ hurdat_atl AL061859 26.0000 -72.9000 HU 100 3 16 17
1859273N17289 1859 22 NA NA NOT_NAMED 1859-10-04 03:00:00 TS 26.7650 -72.6424 main 570 570 P_____________ AL061859 26.7650 -72.6424 HU 100 3 16 17
1859273N17289 1859 22 NA NA NOT_NAMED 1859-10-04 06:00:00 TS 27.5000 -72.4000 100 hurdat_atl main 618 618 O_____________ hurdat_atl AL061859 27.5000 -72.4000 HU 100 3 14 16
1859273N17289 1859 22 NA NA NOT_NAMED 1859-10-04 09:00:00 TS 28.1424 -72.1992 main 666 666 P_____________ AL061859 28.1424 -72.1992 HU 105 3 14 15
1859273N17289 1859 22 NA NA NOT_NAMED 1859-10-04 12:00:00 TS 28.8000 -72.0000 110 hurdat_atl main 723 723 O_____________ hurdat_atl AL061859 28.8000 -72.0000 HU 110 3 15 15
1859273N17289 1859 22 NA NA NOT_NAMED 1859-10-04 15:00:00 TS 29.5474 -71.7717 main 728 677 P_____________ AL061859 29.5474 -71.7717 HU 110 3 17 15
1859273N17289 1859 22 NA NA NOT_NAMED 1859-10-04 18:00:00 TS 30.4000 -71.5000 110 hurdat_atl main 669 621 O_____________ hurdat_atl AL061859 30.4000 -71.5000 HU 110 3 19 16
1859273N17289 1859 22 NA NA NOT_NAMED 1859-10-04 21:00:00 TS 31.3626 -71.1649 main 613 581 P_____________ AL061859 31.3626 -71.1649 HU 110 3 21 17
1859273N17289 1859 22 NA NA NOT_NAMED 1859-10-05 00:00:00 TS 32.4000 -70.8000 110 hurdat_atl main 574 529 O_____________ hurdat_atl AL061859 32.4000 -70.8000 HU 110 3 22 16
1859273N17289 1859 22 NA NA NOT_NAMED 1859-10-05 03:00:00 TS 33.4500 -70.4421 main 537 509 P_____________ AL061859 33.4500 -70.4421 HU 110 3 22 16
1859273N17289 1859 22 NA NA NOT_NAMED 1859-10-05 06:00:00 TS 34.5000 -70.1000 110 hurdat_atl main 510 505 O_____________ hurdat_atl AL061859 34.5000 -70.1000 HU 110 3 22 14
1859273N17289 1859 22 NA NA NOT_NAMED 1859-10-05 09:00:00 TS 35.5446 -69.8136 main 514 513 P_____________ AL061859 35.5446 -69.8136 HU 110 3 21 14
1859273N17289 1859 22 NA NA NOT_NAMED 1859-10-05 12:00:00 TS 36.5000 -69.5000 110 hurdat_atl main 532 495 O_____________ hurdat_atl AL061859 36.5000 -69.5000 HU 110 3 18 18
1859273N17289 1859 22 NA NA NOT_NAMED 1859-10-05 15:00:00 TS 37.2872 -69.0936 main 487 428 P_____________ AL061859 37.2872 -69.0936 HU 110 3 17 26
1859273N17289 1859 22 NA NA NOT_NAMED 1859-10-05 18:00:00 TS 38.0000 -68.6000 110 hurdat_atl main 428 370 O_____________ hurdat_atl AL061859 38.0000 -68.6000 HU 110 3 17 30
1859273N17289 1859 22 NA NA NOT_NAMED 1859-10-05 21:00:00 TS 38.7574 -68.0294 main 364 328 P_____________ AL061859 38.7574 -68.0294 HU 110 3 18 32
1859273N17289 1859 22 NA NA NOT_NAMED 1859-10-06 00:00:00 TS 39.5000 -67.4000 110 hurdat_atl main 328 314 O_____________ hurdat_atl AL061859 39.5000 -67.4000 HU 110 3 17 33
1859273N17289 1859 22 NA NA NOT_NAMED 1859-10-06 03:00:00 TS 40.1911 -66.8136 main 315 291 P_____________ AL061859 40.1911 -66.8136 HU 110 3 17 35
1859273N17289 1859 22 NA NA NOT_NAMED 1859-10-06 06:00:00 TS 40.9000 -66.1000 110 hurdat_atl main 291 211 O_____________ hurdat_atl AL061859 40.9000 -66.1000 HU 110 3 19 40
1859273N17289 1859 22 NA NA NOT_NAMED 1859-10-06 09:00:00 TS 41.6535 -65.1728 main 200 152 P_____________ AL061859 41.6535 -65.1728 HU 110 3 22 44
1859273N17289 1859 22 NA NA NOT_NAMED 1859-10-06 12:00:00 TS 42.5000 -64.0000 110 938 hurdat_atl main 153 128 O_____________ hurdat_atl AL061859 42.5000 -64.0000 HU 110 938 3 26 46
1859273N17289 1859 22 NA NA NOT_NAMED 1859-10-06 15:00:00 TS 43.4700 -62.5831 main 127 83 P_____________ AL061859 43.4700 -62.5831 HU 110 3 30 47
1859273N17289 1859 22 NA NA NOT_NAMED 1859-10-06 18:00:00 TS 44.5000 -61.0000 110 hurdat_atl main 78 O_____________ hurdat_atl AL061859 44.5000 -61.0000 HU 110 3 31 48

IBTrACS Databaseについて

本データベースは、米国NOAAが公開する1842年以降の世界の熱帯低気圧のベストトラックデータアーカイブInternational Best Track Archive for Climate Stewardship (IBTrACS)を、ウェブで閲覧しやすい形式に変換したものです。

最終更新日:2021-11-26